sensor_id;sensor_type;location;lat;lon;timestamp;P1;durP1;ratioP1;P2;durP2;ratioP2
3259;SDS011;68938;48.150;14.004;2023-07-31T00:01:56;5.70;;;5.30;;
3259;SDS011;68938;48.150;14.004;2023-07-31T00:04:26;5.63;;;5.33;;
3259;SDS011;68938;48.150;14.004;2023-07-31T00:06:55;6.13;;;5.73;;
3259;SDS011;68938;48.150;14.004;2023-07-31T00:09:24;7.80;;;4.43;;
3259;SDS011;68938;48.150;14.004;2023-07-31T00:11:51;6.03;;;5.47;;
3259;SDS011;68938;48.150;14.004;2023-07-31T00:14:21;5.23;;;4.80;;
3259;SDS011;68938;48.150;14.004;2023-07-31T00:16:49;4.87;;;4.50;;
3259;SDS011;68938;48.150;14.004;2023-07-31T00:19:18;5.63;;;4.60;;
3259;SDS011;68938;48.150;14.004;2023-07-31T00:21:46;6.10;;;4.93;;
3259;SDS011;68938;48.150;14.004;2023-07-31T00:24:14;8.50;;;4.50;;
3259;SDS011;68938;48.150;14.004;2023-07-31T00:26:43;4.93;;;4.63;;
3259;SDS011;68938;48.150;14.004;2023-07-31T00:29:11;4.53;;;4.20;;
3259;SDS011;68938;48.150;14.004;2023-07-31T00:31:39;4.33;;;3.70;;
3259;SDS011;68938;48.150;14.004;2023-07-31T00:34:09;5.13;;;4.63;;
3259;SDS011;68938;48.150;14.004;2023-07-31T00:36:37;5.27;;;4.87;;
3259;SDS011;68938;48.150;14.004;2023-07-31T00:39:05;5.50;;;4.90;;
3259;SDS011;68938;48.150;14.004;2023-07-31T00:41:32;4.70;;;4.40;;
3259;SDS011;68938;48.150;14.004;2023-07-31T00:44:01;5.10;;;4.70;;
3259;SDS011;68938;48.150;14.004;2023-07-31T00:46:28;4.77;;;4.37;;
3259;SDS011;68938;48.150;14.004;2023-07-31T00:48:59;4.10;;;3.80;;
3259;SDS011;68938;48.150;14.004;2023-07-31T00:51:27;4.07;;;3.80;;
3259;SDS011;68938;48.150;14.004;2023-07-31T00:53:54;3.80;;;3.60;;
3259;SDS011;68938;48.150;14.004;2023-07-31T00:56:22;4.30;;;3.90;;
3259;SDS011;68938;48.150;14.004;2023-07-31T00:58:52;4.20;;;4.00;;
3259;SDS011;68938;48.150;14.004;2023-07-31T01:01:19;4.40;;;4.00;;
3259;SDS011;68938;48.150;14.004;2023-07-31T01:03:47;5.03;;;4.27;;
3259;SDS011;68938;48.150;14.004;2023-07-31T01:06:25;3.43;;;3.23;;
3259;SDS011;68938;48.150;14.004;2023-07-31T01:09:26;8.67;;;4.03;;
3259;SDS011;68938;48.150;14.004;2023-07-31T01:12:14;4.47;;;4.10;;
3259;SDS011;68938;48.150;14.004;2023-07-31T01:17:35;6.20;;;3.50;;
3259;SDS011;68938;48.150;14.004;2023-07-31T01:20:02;5.20;;;3.90;;
3259;SDS011;68938;48.150;14.004;2023-07-31T01:28:50;3.60;;;3.40;;
3259;SDS011;68938;48.150;14.004;2023-07-31T01:31:39;3.93;;;3.73;;
3259;SDS011;68938;48.150;14.004;2023-07-31T01:34:08;5.63;;;3.17;;
3259;SDS011;68938;48.150;14.004;2023-07-31T01:36:39;4.27;;;3.50;;
3259;SDS011;68938;48.150;14.004;2023-07-31T01:39:07;3.37;;;3.17;;
3259;SDS011;68938;48.150;14.004;2023-07-31T01:41:37;4.43;;;2.97;;
3259;SDS011;68938;48.150;14.004;2023-07-31T01:44:04;3.93;;;3.10;;
3259;SDS011;68938;48.150;14.004;2023-07-31T01:46:33;3.63;;;3.30;;
3259;SDS011;68938;48.150;14.004;2023-07-31T01:49:00;5.47;;;3.60;;
3259;SDS011;68938;48.150;14.004;2023-07-31T01:51:27;3.97;;;3.60;;
3259;SDS011;68938;48.150;14.004;2023-07-31T01:53:58;5.73;;;3.47;;
3259;SDS011;68938;48.150;14.004;2023-07-31T01:56:26;4.40;;;3.97;;
3259;SDS011;68938;48.150;14.004;2023-07-31T01:58:53;4.60;;;4.00;;
3259;SDS011;68938;48.150;14.004;2023-07-31T02:01:21;5.47;;;3.60;;
3259;SDS011;68938;48.150;14.004;2023-07-31T02:03:48;4.23;;;3.07;;
3259;SDS011;68938;48.150;14.004;2023-07-31T02:06:17;3.30;;;3.10;;
3259;SDS011;68938;48.150;14.004;2023-07-31T02:08:44;3.70;;;3.47;;
3259;SDS011;68938;48.150;14.004;2023-07-31T02:11:14;6.10;;;3.63;;
3259;SDS011;68938;48.150;14.004;2023-07-31T02:13:42;3.33;;;3.03;;
3259;SDS011;68938;48.150;14.004;2023-07-31T02:16:09;5.13;;;3.30;;
3259;SDS011;68938;48.150;14.004;2023-07-31T02:18:37;6.00;;;4.00;;
3259;SDS011;68938;48.150;14.004;2023-07-31T02:21:05;3.30;;;3.10;;
3259;SDS011;68938;48.150;14.004;2023-07-31T02:23:33;4.70;;;2.80;;
3259;SDS011;68938;48.150;14.004;2023-07-31T02:26:00;6.13;;;2.90;;
3259;SDS011;68938;48.150;14.004;2023-07-31T02:28:28;3.20;;;3.00;;
3259;SDS011;68938;48.150;14.004;2023-07-31T02:30:56;9.60;;;3.67;;
3259;SDS011;68938;48.150;14.004;2023-07-31T02:33:23;3.13;;;2.93;;
3259;SDS011;68938;48.150;14.004;2023-07-31T02:35:52;4.30;;;3.03;;
3259;SDS011;68938;48.150;14.004;2023-07-31T02:38:19;7.17;;;3.37;;
3259;SDS011;68938;48.150;14.004;2023-07-31T02:40:49;3.23;;;2.90;;
3259;SDS011;68938;48.150;14.004;2023-07-31T02:43:19;6.17;;;3.87;;
3259;SDS011;68938;48.150;14.004;2023-07-31T02:45:50;4.00;;;3.70;;
3259;SDS011;68938;48.150;14.004;2023-07-31T02:48:19;3.83;;;3.53;;
3259;SDS011;68938;48.150;14.004;2023-07-31T02:50:47;3.70;;;2.80;;
3259;SDS011;68938;48.150;14.004;2023-07-31T02:53:16;7.57;;;3.70;;
3259;SDS011;68938;48.150;14.004;2023-07-31T02:55:43;3.77;;;3.57;;
3259;SDS011;68938;48.150;14.004;2023-07-31T02:58:11;3.40;;;3.10;;
3259;SDS011;68938;48.150;14.004;2023-07-31T03:00:42;4.00;;;3.03;;
3259;SDS011;68938;48.150;14.004;2023-07-31T03:03:12;5.77;;;3.70;;
3259;SDS011;68938;48.150;14.004;2023-07-31T03:05:39;5.30;;;3.60;;
3259;SDS011;68938;48.150;14.004;2023-07-31T03:08:08;5.40;;;3.30;;
3259;SDS011;68938;48.150;14.004;2023-07-31T03:10:37;3.33;;;3.03;;
3259;SDS011;68938;48.150;14.004;2023-07-31T03:13:04;7.17;;;3.20;;
3259;SDS011;68938;48.150;14.004;2023-07-31T03:15:32;3.70;;;3.37;;
3259;SDS011;68938;48.150;14.004;2023-07-31T03:18:02;4.90;;;3.33;;
3259;SDS011;68938;48.150;14.004;2023-07-31T03:20:29;3.40;;;3.10;;
3259;SDS011;68938;48.150;14.004;2023-07-31T03:22:56;3.63;;;3.27;;
3259;SDS011;68938;48.150;14.004;2023-07-31T03:25:24;4.23;;;3.30;;
3259;SDS011;68938;48.150;14.004;2023-07-31T03:27:51;3.37;;;3.07;;
3259;SDS011;68938;48.150;14.004;2023-07-31T03:30:21;3.30;;;3.10;;
3259;SDS011;68938;48.150;14.004;2023-07-31T03:32:48;3.97;;;3.37;;
3259;SDS011;68938;48.150;14.004;2023-07-31T03:35:15;5.80;;;2.70;;
3259;SDS011;68938;48.150;14.004;2023-07-31T03:37:43;4.50;;;3.40;;
3259;SDS011;68938;48.150;14.004;2023-07-31T03:40:10;3.50;;;3.07;;
3259;SDS011;68938;48.150;14.004;2023-07-31T03:42:39;2.90;;;2.70;;
3259;SDS011;68938;48.150;14.004;2023-07-31T03:45:06;5.63;;;3.03;;
3259;SDS011;68938;48.150;14.004;2023-07-31T03:47:35;5.00;;;2.80;;
3259;SDS011;68938;48.150;14.004;2023-07-31T03:50:02;3.10;;;2.80;;
3259;SDS011;68938;48.150;14.004;2023-07-31T03:52:30;8.23;;;3.70;;
3259;SDS011;68938;48.150;14.004;2023-07-31T03:54:57;4.90;;;3.20;;
3259;SDS011;68938;48.150;14.004;2023-07-31T03:57:24;3.80;;;3.07;;
3259;SDS011;68938;48.150;14.004;2023-07-31T03:59:52;3.63;;;3.10;;
3259;SDS011;68938;48.150;14.004;2023-07-31T04:02:21;6.23;;;3.97;;
3259;SDS011;68938;48.150;14.004;2023-07-31T04:04:48;4.70;;;4.20;;
3259;SDS011;68938;48.150;14.004;2023-07-31T04:07:15;7.80;;;3.33;;
3259;SDS011;68938;48.150;14.004;2023-07-31T04:09:42;4.07;;;2.70;;
3259;SDS011;68938;48.150;14.004;2023-07-31T04:12:11;3.97;;;3.60;;
3259;SDS011;68938;48.150;14.004;2023-07-31T04:14:39;3.63;;;3.33;;
3259;SDS011;68938;48.150;14.004;2023-07-31T04:17:06;2.70;;;2.50;;
3259;SDS011;68938;48.150;14.004;2023-07-31T04:19:36;3.70;;;3.03;;
3259;SDS011;68938;48.150;14.004;2023-07-31T04:22:05;4.17;;;3.77;;
3259;SDS011;68938;48.150;14.004;2023-07-31T04:24:32;4.70;;;3.80;;
3259;SDS011;68938;48.150;14.004;2023-07-31T04:27:01;3.33;;;3.03;;
3259;SDS011;68938;48.150;14.004;2023-07-31T04:29:29;4.07;;;2.90;;
3259;SDS011;68938;48.150;14.004;2023-07-31T04:31:57;3.37;;;3.07;;
3259;SDS011;68938;48.150;14.004;2023-07-31T04:34:24;3.77;;;3.47;;
3259;SDS011;68938;48.150;14.004;2023-07-31T04:36:52;5.30;;;3.10;;
3259;SDS011;68938;48.150;14.004;2023-07-31T04:39:19;5.30;;;2.97;;
3259;SDS011;68938;48.150;14.004;2023-07-31T04:41:46;3.90;;;3.03;;
3259;SDS011;68938;48.150;14.004;2023-07-31T04:44:13;6.70;;;4.27;;
3259;SDS011;68938;48.150;14.004;2023-07-31T04:46:43;3.63;;;3.43;;
3259;SDS011;68938;48.150;14.004;2023-07-31T04:49:11;7.50;;;3.50;;
3259;SDS011;68938;48.150;14.004;2023-07-31T04:51:38;6.50;;;3.20;;
3259;SDS011;68938;48.150;14.004;2023-07-31T04:54:05;3.43;;;2.70;;
3259;SDS011;68938;48.150;14.004;2023-07-31T04:56:33;4.43;;;4.03;;
3259;SDS011;68938;48.150;14.004;2023-07-31T04:59:02;4.63;;;3.83;;
3259;SDS011;68938;48.150;14.004;2023-07-31T05:01:29;3.90;;;3.27;;
3259;SDS011;68938;48.150;14.004;2023-07-31T05:03:56;4.40;;;3.30;;
3259;SDS011;68938;48.150;14.004;2023-07-31T05:06:23;4.77;;;3.17;;
3259;SDS011;68938;48.150;14.004;2023-07-31T05:08:50;6.30;;;4.17;;
3259;SDS011;68938;48.150;14.004;2023-07-31T05:11:17;5.70;;;3.43;;
3259;SDS011;68938;48.150;14.004;2023-07-31T05:13:46;3.90;;;3.60;;
3259;SDS011;68938;48.150;14.004;2023-07-31T05:16:17;4.30;;;3.33;;
3259;SDS011;68938;48.150;14.004;2023-07-31T05:18:45;3.93;;;3.63;;
3259;SDS011;68938;48.150;14.004;2023-07-31T05:21:15;5.47;;;3.67;;
3259;SDS011;68938;48.150;14.004;2023-07-31T05:23:42;3.17;;;2.83;;
3259;SDS011;68938;48.150;14.004;2023-07-31T05:26:11;5.10;;;4.17;;
3259;SDS011;68938;48.150;14.004;2023-07-31T05:28:42;4.30;;;3.20;;
3259;SDS011;68938;48.150;14.004;2023-07-31T05:31:09;5.30;;;2.90;;
3259;SDS011;68938;48.150;14.004;2023-07-31T05:33:36;3.73;;;3.43;;
3259;SDS011;68938;48.150;14.004;2023-07-31T05:36:05;4.90;;;3.37;;
3259;SDS011;68938;48.150;14.004;2023-07-31T05:38:33;4.00;;;3.27;;
3259;SDS011;68938;48.150;14.004;2023-07-31T05:41:02;2.70;;;2.50;;
3259;SDS011;68938;48.150;14.004;2023-07-31T05:43:30;3.87;;;2.77;;
3259;SDS011;68938;48.150;14.004;2023-07-31T05:46:00;3.30;;;3.10;;
3259;SDS011;68938;48.150;14.004;2023-07-31T05:48:32;7.23;;;3.40;;
3259;SDS011;68938;48.150;14.004;2023-07-31T05:51:00;4.00;;;3.20;;
3259;SDS011;68938;48.150;14.004;2023-07-31T05:53:28;3.90;;;3.13;;
3259;SDS011;68938;48.150;14.004;2023-07-31T05:55:56;4.80;;;3.47;;
3259;SDS011;68938;48.150;14.004;2023-07-31T05:58:24;3.10;;;2.80;;
3259;SDS011;68938;48.150;14.004;2023-07-31T06:00:51;3.43;;;2.63;;
3259;SDS011;68938;48.150;14.004;2023-07-31T06:03:18;4.17;;;2.70;;
3259;SDS011;68938;48.150;14.004;2023-07-31T06:05:45;2.67;;;2.57;;
3259;SDS011;68938;48.150;14.004;2023-07-31T06:08:12;3.50;;;2.40;;
3259;SDS011;68938;48.150;14.004;2023-07-31T06:10:40;4.50;;;3.10;;
3259;SDS011;68938;48.150;14.004;2023-07-31T06:13:07;7.53;;;3.00;;
3259;SDS011;68938;48.150;14.004;2023-07-31T06:15:34;6.30;;;3.27;;
3259;SDS011;68938;48.150;14.004;2023-07-31T06:18:02;4.23;;;3.20;;
3259;SDS011;68938;48.150;14.004;2023-07-31T06:20:29;4.80;;;2.60;;
3259;SDS011;68938;48.150;14.004;2023-07-31T06:22:58;5.47;;;2.83;;
3259;SDS011;68938;48.150;14.004;2023-07-31T06:25:27;5.60;;;3.20;;
3259;SDS011;68938;48.150;14.004;2023-07-31T06:27:54;3.73;;;2.93;;
3259;SDS011;68938;48.150;14.004;2023-07-31T06:30:22;3.27;;;2.70;;
3259;SDS011;68938;48.150;14.004;2023-07-31T06:32:50;3.87;;;2.33;;
3259;SDS011;68938;48.150;14.004;2023-07-31T06:35:18;3.63;;;2.33;;
3259;SDS011;68938;48.150;14.004;2023-07-31T06:37:46;3.00;;;2.80;;
3259;SDS011;68938;48.150;14.004;2023-07-31T06:40:13;3.40;;;2.27;;
3259;SDS011;68938;48.150;14.004;2023-07-31T06:42:40;3.10;;;2.80;;
3259;SDS011;68938;48.150;14.004;2023-07-31T06:45:07;3.43;;;3.00;;
3259;SDS011;68938;48.150;14.004;2023-07-31T06:47:35;3.77;;;2.40;;
3259;SDS011;68938;48.150;14.004;2023-07-31T06:50:02;4.00;;;2.50;;
3259;SDS011;68938;48.150;14.004;2023-07-31T06:52:30;4.13;;;2.63;;
3259;SDS011;68938;48.150;14.004;2023-07-31T06:55:09;2.80;;;2.03;;
3259;SDS011;68938;48.150;14.004;2023-07-31T06:57:47;3.73;;;2.70;;
3259;SDS011;68938;48.150;14.004;2023-07-31T07:00:18;6.77;;;2.93;;
3259;SDS011;68938;48.150;14.004;2023-07-31T07:02:45;2.27;;;2.07;;
3259;SDS011;68938;48.150;14.004;2023-07-31T07:05:13;4.77;;;2.10;;
3259;SDS011;68938;48.150;14.004;2023-07-31T07:07:41;2.20;;;1.60;;
3259;SDS011;68938;48.150;14.004;2023-07-31T07:10:09;2.80;;;1.97;;
3259;SDS011;68938;48.150;14.004;2023-07-31T07:12:37;3.20;;;2.07;;
3259;SDS011;68938;48.150;14.004;2023-07-31T07:15:04;2.03;;;1.93;;
3259;SDS011;68938;48.150;14.004;2023-07-31T07:17:34;2.03;;;1.93;;
3259;SDS011;68938;48.150;14.004;2023-07-31T07:20:03;4.33;;;2.00;;
3259;SDS011;68938;48.150;14.004;2023-07-31T07:22:31;4.80;;;1.70;;
3259;SDS011;68938;48.150;14.004;2023-07-31T07:24:58;3.67;;;1.90;;
3259;SDS011;68938;48.150;14.004;2023-07-31T07:27:26;4.00;;;1.43;;
3259;SDS011;68938;48.150;14.004;2023-07-31T07:29:53;2.40;;;1.83;;
3259;SDS011;68938;48.150;14.004;2023-07-31T07:32:20;4.40;;;2.40;;
3259;SDS011;68938;48.150;14.004;2023-07-31T07:34:48;2.90;;;1.80;;
3259;SDS011;68938;48.150;14.004;2023-07-31T07:37:15;5.63;;;1.57;;
3259;SDS011;68938;48.150;14.004;2023-07-31T07:39:43;2.33;;;2.13;;
3259;SDS011;68938;48.150;14.004;2023-07-31T07:42:11;5.23;;;2.20;;
3259;SDS011;68938;48.150;14.004;2023-07-31T07:44:38;3.40;;;2.07;;
3259;SDS011;68938;48.150;14.004;2023-07-31T07:47:05;2.20;;;1.83;;
3259;SDS011;68938;48.150;14.004;2023-07-31T07:49:33;2.17;;;1.97;;
3259;SDS011;68938;48.150;14.004;2023-07-31T07:52:02;5.27;;;1.87;;
3259;SDS011;68938;48.150;14.004;2023-07-31T07:54:30;1.87;;;1.50;;
3259;SDS011;68938;48.150;14.004;2023-07-31T07:56:57;2.27;;;1.57;;
3259;SDS011;68938;48.150;14.004;2023-07-31T07:59:26;3.30;;;1.90;;
3259;SDS011;68938;48.150;14.004;2023-07-31T08:01:54;2.33;;;1.63;;
3259;SDS011;68938;48.150;14.004;2023-07-31T08:04:22;2.43;;;2.10;;
3259;SDS011;68938;48.150;14.004;2023-07-31T08:06:50;1.63;;;1.53;;
3259;SDS011;68938;48.150;14.004;2023-07-31T08:09:20;2.97;;;2.00;;
3259;SDS011;68938;48.150;14.004;2023-07-31T08:11:47;2.30;;;1.50;;
3259;SDS011;68938;48.150;14.004;2023-07-31T08:14:15;2.47;;;2.00;;
3259;SDS011;68938;48.150;14.004;2023-07-31T08:16:42;1.77;;;1.67;;
3259;SDS011;68938;48.150;14.004;2023-07-31T08:19:09;2.50;;;2.30;;
3259;SDS011;68938;48.150;14.004;2023-07-31T08:21:37;1.77;;;1.67;;
3259;SDS011;68938;48.150;14.004;2023-07-31T08:24:04;4.30;;;2.00;;
3259;SDS011;68938;48.150;14.004;2023-07-31T08:26:32;2.73;;;2.37;;
3259;SDS011;68938;48.150;14.004;2023-07-31T08:29:00;2.13;;;2.00;;
3259;SDS011;68938;48.150;14.004;2023-07-31T08:31:27;1.83;;;1.73;;
3259;SDS011;68938;48.150;14.004;2023-07-31T08:33:56;2.07;;;1.90;;
3259;SDS011;68938;48.150;14.004;2023-07-31T08:36:23;3.67;;;3.27;;
3259;SDS011;68938;48.150;14.004;2023-07-31T08:38:54;1.83;;;1.37;;
3259;SDS011;68938;48.150;14.004;2023-07-31T08:41:21;3.00;;;2.20;;
3259;SDS011;68938;48.150;14.004;2023-07-31T08:43:52;2.50;;;1.90;;
3259;SDS011;68938;48.150;14.004;2023-07-31T08:46:19;3.37;;;1.70;;
3259;SDS011;68938;48.150;14.004;2023-07-31T08:48:48;4.30;;;2.10;;
3259;SDS011;68938;48.150;14.004;2023-07-31T08:51:15;2.27;;;2.00;;
3259;SDS011;68938;48.150;14.004;2023-07-31T08:53:43;1.83;;;1.70;;
3259;SDS011;68938;48.150;14.004;2023-07-31T08:56:11;3.23;;;1.70;;
3259;SDS011;68938;48.150;14.004;2023-07-31T08:58:40;3.37;;;1.90;;
3259;SDS011;68938;48.150;14.004;2023-07-31T09:01:07;2.33;;;1.77;;
3259;SDS011;68938;48.150;14.004;2023-07-31T09:03:35;2.50;;;1.50;;
3259;SDS011;68938;48.150;14.004;2023-07-31T09:06:04;2.73;;;2.20;;
3259;SDS011;68938;48.150;14.004;2023-07-31T09:08:33;2.83;;;1.97;;
3259;SDS011;68938;48.150;14.004;2023-07-31T09:11:01;1.97;;;1.73;;
3259;SDS011;68938;48.150;14.004;2023-07-31T09:13:29;4.10;;;1.87;;
3259;SDS011;68938;48.150;14.004;2023-07-31T09:15:58;3.00;;;1.80;;
3259;SDS011;68938;48.150;14.004;2023-07-31T09:18:26;2.40;;;2.13;;
3259;SDS011;68938;48.150;14.004;2023-07-31T09:21:01;2.60;;;2.03;;
3259;SDS011;68938;48.150;14.004;2023-07-31T09:26:11;4.70;;;1.70;;
3259;SDS011;68938;48.150;14.004;2023-07-31T09:29:05;3.47;;;2.17;;
3259;SDS011;68938;48.150;14.004;2023-07-31T09:34:09;2.47;;;1.70;;
3259;SDS011;68938;48.150;14.004;2023-07-31T09:36:41;1.60;;;1.50;;
3259;SDS011;68938;48.150;14.004;2023-07-31T09:39:17;3.60;;;1.90;;
3259;SDS011;68938;48.150;14.004;2023-07-31T09:41:55;2.10;;;1.80;;
3259;SDS011;68938;48.150;14.004;2023-07-31T09:44:39;1.63;;;1.53;;
3259;SDS011;68938;48.150;14.004;2023-07-31T09:47:20;1.70;;;1.60;;
3259;SDS011;68938;48.150;14.004;2023-07-31T09:49:49;1.93;;;1.70;;
3259;SDS011;68938;48.150;14.004;2023-07-31T09:52:19;1.97;;;1.83;;
3259;SDS011;68938;48.150;14.004;2023-07-31T09:54:47;3.07;;;2.00;;
3259;SDS011;68938;48.150;14.004;2023-07-31T09:57:15;2.77;;;1.70;;
3259;SDS011;68938;48.150;14.004;2023-07-31T09:59:48;1.60;;;1.50;;
3259;SDS011;68938;48.150;14.004;2023-07-31T10:02:16;4.97;;;2.03;;
3259;SDS011;68938;48.150;14.004;2023-07-31T10:04:50;2.37;;;2.10;;
3259;SDS011;68938;48.150;14.004;2023-07-31T10:07:19;1.97;;;1.30;;
3259;SDS011;68938;48.150;14.004;2023-07-31T10:09:49;1.73;;;1.63;;
3259;SDS011;68938;48.150;14.004;2023-07-31T10:12:18;3.10;;;2.77;;
3259;SDS011;68938;48.150;14.004;2023-07-31T10:14:49;2.27;;;2.00;;
3259;SDS011;68938;48.150;14.004;2023-07-31T10:17:17;3.13;;;2.20;;
3259;SDS011;68938;48.150;14.004;2023-07-31T10:19:47;1.87;;;1.63;;
3259;SDS011;68938;48.150;14.004;2023-07-31T10:22:15;3.20;;;2.27;;
3259;SDS011;68938;48.150;14.004;2023-07-31T10:24:43;2.30;;;1.70;;
3259;SDS011;68938;48.150;14.004;2023-07-31T10:27:12;1.83;;;1.73;;
3259;SDS011;68938;48.150;14.004;2023-07-31T10:29:40;2.63;;;1.67;;
3259;SDS011;68938;48.150;14.004;2023-07-31T10:32:10;2.33;;;1.97;;
3259;SDS011;68938;48.150;14.004;2023-07-31T10:34:38;3.40;;;1.93;;
3259;SDS011;68938;48.150;14.004;2023-07-31T10:40:01;1.70;;;1.50;;
3259;SDS011;68938;48.150;14.004;2023-07-31T10:42:49;2.10;;;1.80;;
3259;SDS011;68938;48.150;14.004;2023-07-31T10:45:26;1.90;;;1.80;;
3259;SDS011;68938;48.150;14.004;2023-07-31T10:48:12;7.83;;;2.30;;
3259;SDS011;68938;48.150;14.004;2023-07-31T10:50:52;2.43;;;2.03;;
3259;SDS011;68938;48.150;14.004;2023-07-31T10:53:26;2.50;;;2.30;;
3259;SDS011;68938;48.150;14.004;2023-07-31T10:56:02;2.50;;;1.90;;
3259;SDS011;68938;48.150;14.004;2023-07-31T10:58:36;1.80;;;1.70;;
3259;SDS011;68938;48.150;14.004;2023-07-31T11:01:05;2.47;;;2.27;;
3259;SDS011;68938;48.150;14.004;2023-07-31T11:03:46;3.33;;;1.60;;
3259;SDS011;68938;48.150;14.004;2023-07-31T11:06:16;3.87;;;1.57;;
3259;SDS011;68938;48.150;14.004;2023-07-31T11:08:49;2.53;;;2.00;;
3259;SDS011;68938;48.150;14.004;2023-07-31T11:11:19;1.90;;;1.80;;
3259;SDS011;68938;48.150;14.004;2023-07-31T11:16:16;1.70;;;1.60;;
3259;SDS011;68938;48.150;14.004;2023-07-31T11:18:52;4.90;;;1.90;;
3259;SDS011;68938;48.150;14.004;2023-07-31T11:21:23;4.03;;;2.10;;
3259;SDS011;68938;48.150;14.004;2023-07-31T11:23:52;4.67;;;2.00;;
3259;SDS011;68938;48.150;14.004;2023-07-31T11:26:24;3.13;;;2.00;;
3259;SDS011;68938;48.150;14.004;2023-07-31T11:28:51;2.20;;;1.73;;
3259;SDS011;68938;48.150;14.004;2023-07-31T11:31:20;2.50;;;1.80;;
3259;SDS011;68938;48.150;14.004;2023-07-31T11:33:47;1.93;;;1.83;;
3259;SDS011;68938;48.150;14.004;2023-07-31T11:36:18;2.40;;;2.20;;
3259;SDS011;68938;48.150;14.004;2023-07-31T11:38:47;2.17;;;1.87;;
3259;SDS011;68938;48.150;14.004;2023-07-31T11:41:17;2.20;;;2.00;;
3259;SDS011;68938;48.150;14.004;2023-07-31T11:43:45;2.40;;;2.07;;
3259;SDS011;68938;48.150;14.004;2023-07-31T11:46:13;2.10;;;1.80;;
3259;SDS011;68938;48.150;14.004;2023-07-31T11:48:40;1.97;;;1.67;;
3259;SDS011;68938;48.150;14.004;2023-07-31T11:51:09;3.10;;;2.30;;
3259;SDS011;68938;48.150;14.004;2023-07-31T11:53:49;1.97;;;1.87;;
3259;SDS011;68938;48.150;14.004;2023-07-31T11:56:21;2.47;;;2.30;;
3259;SDS011;68938;48.150;14.004;2023-07-31T11:58:54;2.27;;;2.13;;
3259;SDS011;68938;48.150;14.004;2023-07-31T12:01:26;1.80;;;1.70;;
3259;SDS011;68938;48.150;14.004;2023-07-31T12:03:54;2.63;;;2.10;;
3259;SDS011;68938;48.150;14.004;2023-07-31T12:06:31;2.90;;;1.90;;
3259;SDS011;68938;48.150;14.004;2023-07-31T12:09:02;2.63;;;1.60;;
3259;SDS011;68938;48.150;14.004;2023-07-31T12:11:31;2.27;;;2.07;;
3259;SDS011;68938;48.150;14.004;2023-07-31T12:14:19;2.43;;;2.10;;
3259;SDS011;68938;48.150;14.004;2023-07-31T12:16:54;3.03;;;2.20;;
3259;SDS011;68938;48.150;14.004;2023-07-31T12:19:26;2.53;;;2.33;;
3259;SDS011;68938;48.150;14.004;2023-07-31T12:21:58;2.30;;;2.20;;
3259;SDS011;68938;48.150;14.004;2023-07-31T12:24:27;6.50;;;2.40;;
3259;SDS011;68938;48.150;14.004;2023-07-31T12:26:54;1.80;;;1.67;;
3259;SDS011;68938;48.150;14.004;2023-07-31T12:29:22;2.17;;;1.97;;
3259;SDS011;68938;48.150;14.004;2023-07-31T12:31:49;2.97;;;2.13;;
3259;SDS011;68938;48.150;14.004;2023-07-31T12:34:17;1.70;;;1.63;;
3259;SDS011;68938;48.150;14.004;2023-07-31T12:36:45;7.00;;;2.53;;
3259;SDS011;68938;48.150;14.004;2023-07-31T12:39:14;5.30;;;1.87;;
3259;SDS011;68938;48.150;14.004;2023-07-31T12:41:41;4.10;;;2.20;;
3259;SDS011;68938;48.150;14.004;2023-07-31T12:44:08;1.90;;;1.80;;
3259;SDS011;68938;48.150;14.004;2023-07-31T12:46:35;4.03;;;1.93;;
3259;SDS011;68938;48.150;14.004;2023-07-31T12:49:04;2.10;;;2.00;;
3259;SDS011;68938;48.150;14.004;2023-07-31T12:51:33;4.87;;;2.33;;
3259;SDS011;68938;48.150;14.004;2023-07-31T12:54:01;2.40;;;1.90;;
3259;SDS011;68938;48.150;14.004;2023-07-31T12:56:28;2.60;;;2.40;;
3259;SDS011;68938;48.150;14.004;2023-07-31T12:58:55;3.03;;;2.33;;
3259;SDS011;68938;48.150;14.004;2023-07-31T13:01:22;2.93;;;2.40;;
3259;SDS011;68938;48.150;14.004;2023-07-31T13:03:51;1.90;;;1.80;;
3259;SDS011;68938;48.150;14.004;2023-07-31T13:06:20;4.00;;;2.50;;
3259;SDS011;68938;48.150;14.004;2023-07-31T13:08:48;2.73;;;2.53;;
3259;SDS011;68938;48.150;14.004;2023-07-31T13:11:16;2.43;;;2.07;;
3259;SDS011;68938;48.150;14.004;2023-07-31T13:13:44;2.00;;;1.90;;
3259;SDS011;68938;48.150;14.004;2023-07-31T13:16:13;2.60;;;2.40;;
3259;SDS011;68938;48.150;14.004;2023-07-31T13:18:40;2.30;;;2.10;;
3259;SDS011;68938;48.150;14.004;2023-07-31T13:21:08;3.43;;;2.17;;
3259;SDS011;68938;48.150;14.004;2023-07-31T13:23:35;2.23;;;2.07;;
3259;SDS011;68938;48.150;14.004;2023-07-31T13:26:03;3.20;;;2.40;;
3259;SDS011;68938;48.150;14.004;2023-07-31T13:28:30;2.70;;;2.50;;
3259;SDS011;68938;48.150;14.004;2023-07-31T13:30:58;2.30;;;2.17;;
3259;SDS011;68938;48.150;14.004;2023-07-31T13:33:25;2.37;;;2.20;;
3259;SDS011;68938;48.150;14.004;2023-07-31T13:36:02;2.67;;;2.57;;
3259;SDS011;68938;48.150;14.004;2023-07-31T13:38:30;2.43;;;2.10;;
3259;SDS011;68938;48.150;14.004;2023-07-31T13:40:57;1.97;;;1.87;;
3259;SDS011;68938;48.150;14.004;2023-07-31T13:43:25;2.50;;;2.03;;
3259;SDS011;68938;48.150;14.004;2023-07-31T13:45:53;2.00;;;1.90;;
3259;SDS011;68938;48.150;14.004;2023-07-31T13:48:23;2.20;;;2.10;;
3259;SDS011;68938;48.150;14.004;2023-07-31T13:50:51;2.60;;;2.40;;
3259;SDS011;68938;48.150;14.004;2023-07-31T13:53:18;3.87;;;2.47;;
3259;SDS011;68938;48.150;14.004;2023-07-31T13:55:45;2.50;;;2.40;;
3259;SDS011;68938;48.150;14.004;2023-07-31T13:58:12;2.10;;;2.00;;
3259;SDS011;68938;48.150;14.004;2023-07-31T14:00:40;2.00;;;1.90;;
3259;SDS011;68938;48.150;14.004;2023-07-31T14:03:08;3.10;;;2.67;;
3259;SDS011;68938;48.150;14.004;2023-07-31T14:05:36;1.87;;;1.67;;
3259;SDS011;68938;48.150;14.004;2023-07-31T14:08:04;2.40;;;2.20;;
3259;SDS011;68938;48.150;14.004;2023-07-31T14:10:31;6.10;;;2.53;;
3259;SDS011;68938;48.150;14.004;2023-07-31T14:12:58;2.30;;;2.13;;
3259;SDS011;68938;48.150;14.004;2023-07-31T14:15:27;2.60;;;2.40;;
3259;SDS011;68938;48.150;14.004;2023-07-31T14:17:55;2.13;;;2.03;;
3259;SDS011;68938;48.150;14.004;2023-07-31T14:20:27;2.20;;;2.00;;
3259;SDS011;68938;48.150;14.004;2023-07-31T14:22:56;2.97;;;2.43;;
3259;SDS011;68938;48.150;14.004;2023-07-31T14:25:23;4.60;;;2.40;;
3259;SDS011;68938;48.150;14.004;2023-07-31T14:27:50;3.03;;;2.50;;
3259;SDS011;68938;48.150;14.004;2023-07-31T14:30:17;2.33;;;2.13;;
3259;SDS011;68938;48.150;14.004;2023-07-31T14:32:45;2.43;;;2.23;;
3259;SDS011;68938;48.150;14.004;2023-07-31T14:35:15;2.57;;;2.30;;
3259;SDS011;68938;48.150;14.004;2023-07-31T14:37:43;2.83;;;2.10;;
3259;SDS011;68938;48.150;14.004;2023-07-31T14:40:12;2.60;;;2.40;;
3259;SDS011;68938;48.150;14.004;2023-07-31T14:42:40;2.40;;;2.20;;
3259;SDS011;68938;48.150;14.004;2023-07-31T14:45:08;2.47;;;2.27;;
3259;SDS011;68938;48.150;14.004;2023-07-31T14:47:37;2.40;;;2.30;;
3259;SDS011;68938;48.150;14.004;2023-07-31T14:50:04;2.60;;;2.40;;
3259;SDS011;68938;48.150;14.004;2023-07-31T14:52:32;2.50;;;2.20;;
3259;SDS011;68938;48.150;14.004;2023-07-31T14:55:02;2.83;;;2.20;;
3259;SDS011;68938;48.150;14.004;2023-07-31T14:57:29;4.80;;;2.93;;
3259;SDS011;68938;48.150;14.004;2023-07-31T14:59:56;2.47;;;2.27;;
3259;SDS011;68938;48.150;14.004;2023-07-31T15:02:25;2.20;;;2.07;;
3259;SDS011;68938;48.150;14.004;2023-07-31T15:04:52;2.70;;;2.50;;
3259;SDS011;68938;48.150;14.004;2023-07-31T15:07:19;2.70;;;2.10;;
3259;SDS011;68938;48.150;14.004;2023-07-31T15:09:47;2.90;;;2.30;;
3259;SDS011;68938;48.150;14.004;2023-07-31T15:12:14;2.73;;;2.30;;
3259;SDS011;68938;48.150;14.004;2023-07-31T15:14:43;2.30;;;2.10;;
3259;SDS011;68938;48.150;14.004;2023-07-31T15:17:11;3.60;;;2.40;;
3259;SDS011;68938;48.150;14.004;2023-07-31T15:19:39;2.90;;;2.60;;